Terminal Aerodrome Forecast
Issued by NWS Shreveport, LA

Home | Current Version | Previous Version | Text Only | Print | Product List | Glossary On
Versions: 1 2 3 4 5 6 7 8 9 10 11 12 13 14 15
000
FTUS44 KSHV 192300
TAFGGG
TAF
KGGG 192325Z 2000/2024 13004KT P6SM SCT060 BKN250
     FM200200 14004KT P6SM BKN250
      TEMPO 2010/2013 5SM BR
     FM201600 15007KT P6SM SCT040 BKN250
     FM201800 16008KT P6SM SCT045 BKN250=

USA.gov is the U.S. government's official web portal to all federal, state and local government web resources and services.